sensor_id;sensor_type;location;lat;lon;timestamp;P1;durP1;ratioP1;P2;durP2;ratioP2
36243;SDS011;22284;49.956;19.816;2022-12-13T00:02:41;34.20;;;16.07;;
36243;SDS011;22284;49.956;19.816;2022-12-13T00:05:43;33.70;;;16.37;;
36243;SDS011;22284;49.956;19.816;2022-12-13T00:08:44;33.93;;;14.93;;
36243;SDS011;22284;49.956;19.816;2022-12-13T00:11:46;34.30;;;15.37;;
36243;SDS011;22284;49.956;19.816;2022-12-13T00:14:49;31.30;;;15.40;;
36243;SDS011;22284;49.956;19.816;2022-12-13T00:17:50;30.63;;;13.90;;
36243;SDS011;22284;49.956;19.816;2022-12-13T00:20:51;32.67;;;14.73;;
36243;SDS011;22284;49.956;19.816;2022-12-13T00:23:52;33.17;;;14.47;;
36243;SDS011;22284;49.956;19.816;2022-12-13T00:26:53;29.17;;;13.33;;
36243;SDS011;22284;49.956;19.816;2022-12-13T00:29:55;32.43;;;14.53;;
36243;SDS011;22284;49.956;19.816;2022-12-13T00:32:56;28.67;;;13.70;;
36243;SDS011;22284;49.956;19.816;2022-12-13T00:35:57;28.73;;;13.73;;
36243;SDS011;22284;49.956;19.816;2022-12-13T00:38:58;27.57;;;13.60;;
36243;SDS011;22284;49.956;19.816;2022-12-13T00:41:59;29.20;;;13.47;;
36243;SDS011;22284;49.956;19.816;2022-12-13T00:45:01;26.07;;;12.50;;
36243;SDS011;22284;49.956;19.816;2022-12-13T00:48:02;28.67;;;13.23;;
36243;SDS011;22284;49.956;19.816;2022-12-13T00:51:05;27.32;;;13.15;;
36243;SDS011;22284;49.956;19.816;2022-12-13T00:54:08;26.93;;;13.13;;
36243;SDS011;22284;49.956;19.816;2022-12-13T00:57:10;26.17;;;12.33;;
36243;SDS011;22284;49.956;19.816;2022-12-13T01:00:11;26.70;;;13.07;;
36243;SDS011;22284;49.956;19.816;2022-12-13T01:03:13;27.30;;;12.87;;
36243;SDS011;22284;49.956;19.816;2022-12-13T01:06:21;24.93;;;11.87;;
36243;SDS011;22284;49.956;19.816;2022-12-13T01:09:28;25.37;;;12.30;;
36243;SDS011;22284;49.956;19.816;2022-12-13T01:12:30;25.27;;;11.80;;
36243;SDS011;22284;49.956;19.816;2022-12-13T01:15:31;26.80;;;12.07;;
36243;SDS011;22284;49.956;19.816;2022-12-13T01:18:32;25.77;;;12.23;;
36243;SDS011;22284;49.956;19.816;2022-12-13T01:21:33;25.17;;;11.13;;
36243;SDS011;22284;49.956;19.816;2022-12-13T01:24:34;23.10;;;10.60;;
36243;SDS011;22284;49.956;19.816;2022-12-13T01:27:35;23.17;;;10.83;;
36243;SDS011;22284;49.956;19.816;2022-12-13T01:30:36;21.10;;;10.03;;
36243;SDS011;22284;49.956;19.816;2022-12-13T01:33:37;21.77;;;9.47;;
36243;SDS011;22284;49.956;19.816;2022-12-13T01:36:40;21.10;;;9.93;;
36243;SDS011;22284;49.956;19.816;2022-12-13T01:42:43;20.33;;;9.47;;
36243;SDS011;22284;49.956;19.816;2022-12-13T01:45:44;20.53;;;9.40;;
36243;SDS011;22284;49.956;19.816;2022-12-13T01:51:57;21.27;;;9.20;;
36243;SDS011;22284;49.956;19.816;2022-12-13T01:55:02;22.70;;;9.87;;
36243;SDS011;22284;49.956;19.816;2022-12-13T01:58:07;19.87;;;9.63;;
36243;SDS011;22284;49.956;19.816;2022-12-13T02:01:08;22.33;;;10.53;;
36243;SDS011;22284;49.956;19.816;2022-12-13T02:04:10;20.93;;;9.67;;
36243;SDS011;22284;49.956;19.816;2022-12-13T02:07:14;20.00;;;9.77;;
36243;SDS011;22284;49.956;19.816;2022-12-13T02:10:20;20.80;;;9.83;;
36243;SDS011;22284;49.956;19.816;2022-12-13T02:13:21;20.20;;;9.80;;
36243;SDS011;22284;49.956;19.816;2022-12-13T02:19:48;23.50;;;10.63;;
36243;SDS011;22284;49.956;19.816;2022-12-13T02:26:57;26.63;;;11.83;;
36243;SDS011;22284;49.956;19.816;2022-12-13T02:30:20;24.82;;;12.23;;
36243;SDS011;22284;49.956;19.816;2022-12-13T02:33:49;25.20;;;11.33;;
36243;SDS011;22284;49.956;19.816;2022-12-13T02:40:08;24.33;;;11.73;;
36243;SDS011;22284;49.956;19.816;2022-12-13T02:43:33;24.37;;;10.77;;
36243;SDS011;22284;49.956;19.816;2022-12-13T02:46:55;25.00;;;11.23;;
36243;SDS011;22284;49.956;19.816;2022-12-13T02:50:01;23.20;;;11.00;;
36243;SDS011;22284;49.956;19.816;2022-12-13T02:53:07;24.27;;;10.80;;
36243;SDS011;22284;49.956;19.816;2022-12-13T02:56:10;25.20;;;11.22;;
36243;SDS011;22284;49.956;19.816;2022-12-13T02:59:11;22.37;;;11.00;;
36243;SDS011;22284;49.956;19.816;2022-12-13T03:13:18;26.77;;;12.37;;
36243;SDS011;22284;49.956;19.816;2022-12-13T03:16:39;27.33;;;12.03;;
36243;SDS011;22284;49.956;19.816;2022-12-13T03:19:43;25.37;;;11.53;;
36243;SDS011;22284;49.956;19.816;2022-12-13T03:22:44;23.60;;;11.47;;
36243;SDS011;22284;49.956;19.816;2022-12-13T03:25:46;25.90;;;12.07;;
36243;SDS011;22284;49.956;19.816;2022-12-13T03:28:51;27.23;;;12.90;;
36243;SDS011;22284;49.956;19.816;2022-12-13T03:31:53;27.03;;;12.40;;
36243;SDS011;22284;49.956;19.816;2022-12-13T03:34:54;27.97;;;13.47;;
36243;SDS011;22284;49.956;19.816;2022-12-13T03:37:55;29.03;;;14.43;;
36243;SDS011;22284;49.956;19.816;2022-12-13T03:40:57;28.00;;;13.87;;
36243;SDS011;22284;49.956;19.816;2022-12-13T03:44:02;27.13;;;13.07;;
36243;SDS011;22284;49.956;19.816;2022-12-13T03:47:06;33.10;;;13.40;;
36243;SDS011;22284;49.956;19.816;2022-12-13T03:50:08;27.20;;;12.33;;
36243;SDS011;22284;49.956;19.816;2022-12-13T03:53:09;25.93;;;12.20;;
36243;SDS011;22284;49.956;19.816;2022-12-13T03:56:10;22.30;;;10.47;;
36243;SDS011;22284;49.956;19.816;2022-12-13T03:59:12;27.33;;;12.37;;
36243;SDS011;22284;49.956;19.816;2022-12-13T04:02:13;24.50;;;11.40;;
36243;SDS011;22284;49.956;19.816;2022-12-13T04:05:14;24.30;;;10.63;;
36243;SDS011;22284;49.956;19.816;2022-12-13T04:08:15;22.77;;;11.43;;
36243;SDS011;22284;49.956;19.816;2022-12-13T04:11:16;23.13;;;10.70;;
36243;SDS011;22284;49.956;19.816;2022-12-13T04:14:35;22.63;;;10.10;;
36243;SDS011;22284;49.956;19.816;2022-12-13T04:17:36;24.47;;;10.33;;
36243;SDS011;22284;49.956;19.816;2022-12-13T04:20:37;23.23;;;10.40;;
36243;SDS011;22284;49.956;19.816;2022-12-13T04:23:38;24.90;;;10.90;;
36243;SDS011;22284;49.956;19.816;2022-12-13T04:26:39;22.97;;;9.73;;
36243;SDS011;22284;49.956;19.816;2022-12-13T04:29:40;22.03;;;9.90;;
36243;SDS011;22284;49.956;19.816;2022-12-13T04:32:41;23.50;;;10.40;;
36243;SDS011;22284;49.956;19.816;2022-12-13T04:35:42;23.60;;;10.77;;
36243;SDS011;22284;49.956;19.816;2022-12-13T04:38:43;23.67;;;10.00;;
36243;SDS011;22284;49.956;19.816;2022-12-13T04:41:44;22.07;;;10.57;;
36243;SDS011;22284;49.956;19.816;2022-12-13T04:44:45;27.50;;;11.13;;
36243;SDS011;22284;49.956;19.816;2022-12-13T04:47:46;23.67;;;10.43;;
36243;SDS011;22284;49.956;19.816;2022-12-13T04:50:47;25.33;;;10.40;;
36243;SDS011;22284;49.956;19.816;2022-12-13T04:53:48;23.97;;;10.97;;
36243;SDS011;22284;49.956;19.816;2022-12-13T04:56:49;24.17;;;10.37;;
36243;SDS011;22284;49.956;19.816;2022-12-13T04:59:50;25.07;;;10.77;;
36243;SDS011;22284;49.956;19.816;2022-12-13T05:02:51;23.23;;;9.60;;
36243;SDS011;22284;49.956;19.816;2022-12-13T05:05:53;21.03;;;10.23;;
36243;SDS011;22284;49.956;19.816;2022-12-13T05:08:54;24.30;;;10.50;;
36243;SDS011;22284;49.956;19.816;2022-12-13T05:11:55;22.80;;;9.90;;
36243;SDS011;22284;49.956;19.816;2022-12-13T05:14:56;20.90;;;9.30;;
36243;SDS011;22284;49.956;19.816;2022-12-13T05:18:00;22.17;;;9.40;;
36243;SDS011;22284;49.956;19.816;2022-12-13T05:21:05;21.13;;;10.07;;
36243;SDS011;22284;49.956;19.816;2022-12-13T05:24:09;20.77;;;9.43;;
36243;SDS011;22284;49.956;19.816;2022-12-13T05:27:10;20.70;;;9.30;;
36243;SDS011;22284;49.956;19.816;2022-12-13T05:30:12;19.80;;;8.97;;
36243;SDS011;22284;49.956;19.816;2022-12-13T05:33:13;21.67;;;8.77;;
36243;SDS011;22284;49.956;19.816;2022-12-13T05:36:14;24.07;;;9.17;;
36243;SDS011;22284;49.956;19.816;2022-12-13T05:39:15;19.20;;;8.37;;
36243;SDS011;22284;49.956;19.816;2022-12-13T05:42:16;19.57;;;8.63;;
36243;SDS011;22284;49.956;19.816;2022-12-13T05:45:18;17.77;;;8.40;;
36243;SDS011;22284;49.956;19.816;2022-12-13T05:48:20;19.87;;;8.63;;
36243;SDS011;22284;49.956;19.816;2022-12-13T05:51:21;21.37;;;8.77;;
36243;SDS011;22284;49.956;19.816;2022-12-13T05:54:22;21.33;;;8.97;;
36243;SDS011;22284;49.956;19.816;2022-12-13T05:57:23;19.77;;;9.23;;
36243;SDS011;22284;49.956;19.816;2022-12-13T06:00:24;21.37;;;8.20;;
36243;SDS011;22284;49.956;19.816;2022-12-13T06:03:25;20.27;;;7.87;;
36243;SDS011;22284;49.956;19.816;2022-12-13T06:06:27;20.50;;;8.67;;
36243;SDS011;22284;49.956;19.816;2022-12-13T06:09:28;21.03;;;8.73;;
36243;SDS011;22284;49.956;19.816;2022-12-13T06:12:30;20.17;;;8.70;;
36243;SDS011;22284;49.956;19.816;2022-12-13T06:15:31;21.57;;;8.40;;
36243;SDS011;22284;49.956;19.816;2022-12-13T06:18:33;23.80;;;8.53;;
36243;SDS011;22284;49.956;19.816;2022-12-13T06:21:36;21.23;;;8.08;;
36243;SDS011;22284;49.956;19.816;2022-12-13T06:24:37;20.60;;;8.43;;
36243;SDS011;22284;49.956;19.816;2022-12-13T06:27:38;21.30;;;8.57;;
36243;SDS011;22284;49.956;19.816;2022-12-13T06:30:38;25.13;;;9.53;;
36243;SDS011;22284;49.956;19.816;2022-12-13T06:33:40;20.27;;;9.20;;
36243;SDS011;22284;49.956;19.816;2022-12-13T06:36:41;26.00;;;9.90;;
36243;SDS011;22284;49.956;19.816;2022-12-13T06:39:42;22.20;;;9.50;;
36243;SDS011;22284;49.956;19.816;2022-12-13T06:42:43;22.37;;;9.27;;
36243;SDS011;22284;49.956;19.816;2022-12-13T06:45:44;22.77;;;9.63;;
36243;SDS011;22284;49.956;19.816;2022-12-13T06:48:46;21.70;;;9.27;;
36243;SDS011;22284;49.956;19.816;2022-12-13T06:51:48;21.10;;;9.07;;
36243;SDS011;22284;49.956;19.816;2022-12-13T06:54:49;22.20;;;9.60;;
36243;SDS011;22284;49.956;19.816;2022-12-13T06:57:50;23.73;;;9.73;;
36243;SDS011;22284;49.956;19.816;2022-12-13T07:00:59;21.43;;;9.63;;
36243;SDS011;22284;49.956;19.816;2022-12-13T07:04:04;20.03;;;9.00;;
36243;SDS011;22284;49.956;19.816;2022-12-13T07:07:08;21.17;;;9.33;;
36243;SDS011;22284;49.956;19.816;2022-12-13T07:10:09;20.27;;;9.47;;
36243;SDS011;22284;49.956;19.816;2022-12-13T07:13:10;21.77;;;9.27;;
36243;SDS011;22284;49.956;19.816;2022-12-13T07:16:11;20.80;;;9.13;;
36243;SDS011;22284;49.956;19.816;2022-12-13T07:19:13;23.90;;;9.67;;
36243;SDS011;22284;49.956;19.816;2022-12-13T07:22:14;21.17;;;9.43;;
36243;SDS011;22284;49.956;19.816;2022-12-13T07:25:15;22.27;;;9.43;;
36243;SDS011;22284;49.956;19.816;2022-12-13T07:28:16;20.80;;;9.27;;
36243;SDS011;22284;49.956;19.816;2022-12-13T07:31:17;19.63;;;8.93;;
36243;SDS011;22284;49.956;19.816;2022-12-13T07:34:18;22.77;;;9.60;;
36243;SDS011;22284;49.956;19.816;2022-12-13T07:37:19;21.13;;;8.60;;
36243;SDS011;22284;49.956;19.816;2022-12-13T07:40:20;21.50;;;8.90;;
36243;SDS011;22284;49.956;19.816;2022-12-13T07:43:22;18.93;;;8.50;;
36243;SDS011;22284;49.956;19.816;2022-12-13T07:46:24;21.73;;;8.80;;
36243;SDS011;22284;49.956;19.816;2022-12-13T07:49:25;20.37;;;9.27;;
36243;SDS011;22284;49.956;19.816;2022-12-13T07:52:26;19.97;;;8.47;;
36243;SDS011;22284;49.956;19.816;2022-12-13T07:55:27;20.97;;;9.43;;
36243;SDS011;22284;49.956;19.816;2022-12-13T07:58:28;21.50;;;9.73;;
36243;SDS011;22284;49.956;19.816;2022-12-13T08:01:30;20.83;;;9.17;;
36243;SDS011;22284;49.956;19.816;2022-12-13T08:04:35;27.07;;;12.47;;
36243;SDS011;22284;49.956;19.816;2022-12-13T08:07:36;30.00;;;11.67;;
36243;SDS011;22284;49.956;19.816;2022-12-13T08:10:37;23.63;;;10.53;;
36243;SDS011;22284;49.956;19.816;2022-12-13T08:13:39;25.43;;;10.53;;
36243;SDS011;22284;49.956;19.816;2022-12-13T08:16:40;22.27;;;8.80;;
36243;SDS011;22284;49.956;19.816;2022-12-13T08:19:41;18.10;;;8.30;;
36243;SDS011;22284;49.956;19.816;2022-12-13T08:22:42;21.23;;;9.03;;
36243;SDS011;22284;49.956;19.816;2022-12-13T08:25:49;20.00;;;9.43;;
36243;SDS011;22284;49.956;19.816;2022-12-13T08:28:52;17.20;;;7.77;;
36243;SDS011;22284;49.956;19.816;2022-12-13T08:31:53;20.73;;;9.13;;
36243;SDS011;22284;49.956;19.816;2022-12-13T08:34:54;20.00;;;8.90;;
36243;SDS011;22284;49.956;19.816;2022-12-13T08:37:55;25.10;;;10.80;;
36243;SDS011;22284;49.956;19.816;2022-12-13T08:40:57;24.50;;;11.20;;
36243;SDS011;22284;49.956;19.816;2022-12-13T08:43:58;24.37;;;10.97;;
36243;SDS011;22284;49.956;19.816;2022-12-13T08:47:00;23.03;;;10.23;;
36243;SDS011;22284;49.956;19.816;2022-12-13T08:50:01;23.87;;;10.77;;
36243;SDS011;22284;49.956;19.816;2022-12-13T08:53:02;30.97;;;12.17;;
36243;SDS011;22284;49.956;19.816;2022-12-13T08:56:04;22.93;;;10.87;;
36243;SDS011;22284;49.956;19.816;2022-12-13T08:59:10;25.47;;;11.17;;
36243;SDS011;22284;49.956;19.816;2022-12-13T09:02:14;23.50;;;10.63;;
36243;SDS011;22284;49.956;19.816;2022-12-13T09:05:37;22.00;;;10.73;;
36243;SDS011;22284;49.956;19.816;2022-12-13T09:08:39;23.33;;;10.83;;
36243;SDS011;22284;49.956;19.816;2022-12-13T09:11:41;24.57;;;10.73;;
36243;SDS011;22284;49.956;19.816;2022-12-13T09:14:42;21.83;;;11.03;;
36243;SDS011;22284;49.956;19.816;2022-12-13T09:17:43;26.00;;;11.53;;
36243;SDS011;22284;49.956;19.816;2022-12-13T09:20:43;25.23;;;10.90;;
36243;SDS011;22284;49.956;19.816;2022-12-13T09:23:44;24.10;;;11.10;;
36243;SDS011;22284;49.956;19.816;2022-12-13T09:26:46;24.50;;;11.90;;
36243;SDS011;22284;49.956;19.816;2022-12-13T09:29:47;24.60;;;11.63;;
36243;SDS011;22284;49.956;19.816;2022-12-13T09:32:48;24.30;;;11.83;;
36243;SDS011;22284;49.956;19.816;2022-12-13T09:35:50;23.27;;;11.07;;
36243;SDS011;22284;49.956;19.816;2022-12-13T09:38:52;23.77;;;11.23;;
36243;SDS011;22284;49.956;19.816;2022-12-13T09:41:55;20.10;;;8.90;;
36243;SDS011;22284;49.956;19.816;2022-12-13T09:44:59;15.30;;;7.30;;
36243;SDS011;22284;49.956;19.816;2022-12-13T09:48:03;18.03;;;7.90;;
36243;SDS011;22284;49.956;19.816;2022-12-13T09:51:07;18.93;;;7.90;;
36243;SDS011;22284;49.956;19.816;2022-12-13T09:54:12;19.50;;;8.53;;
36243;SDS011;22284;49.956;19.816;2022-12-13T09:57:27;20.33;;;9.00;;
36243;SDS011;22284;49.956;19.816;2022-12-13T10:00:32;17.23;;;7.97;;
36243;SDS011;22284;49.956;19.816;2022-12-13T10:03:35;19.57;;;8.73;;
36243;SDS011;22284;49.956;19.816;2022-12-13T10:06:38;16.25;;;7.37;;
36243;SDS011;22284;49.956;19.816;2022-12-13T10:09:39;18.53;;;7.97;;
36243;SDS011;22284;49.956;19.816;2022-12-13T10:12:41;18.10;;;7.30;;
36243;SDS011;22284;49.956;19.816;2022-12-13T10:15:46;15.85;;;7.28;;
36243;SDS011;22284;49.956;19.816;2022-12-13T10:18:50;17.40;;;7.67;;
36243;SDS011;22284;49.956;19.816;2022-12-13T10:21:51;16.57;;;7.63;;
36243;SDS011;22284;49.956;19.816;2022-12-13T10:28:04;20.93;;;9.13;;
36243;SDS011;22284;49.956;19.816;2022-12-13T10:31:06;18.87;;;8.50;;
36243;SDS011;22284;49.956;19.816;2022-12-13T10:34:40;19.90;;;9.53;;
36243;SDS011;22284;49.956;19.816;2022-12-13T10:37:26;19.73;;;8.80;;
36243;SDS011;22284;49.956;19.816;2022-12-13T10:43:43;16.50;;;6.97;;
36243;SDS011;22284;49.956;19.816;2022-12-13T10:50:03;19.77;;;8.17;;
36243;SDS011;22284;49.956;19.816;2022-12-13T10:53:05;18.60;;;8.23;;
36243;SDS011;22284;49.956;19.816;2022-12-13T10:56:06;20.30;;;8.47;;
36243;SDS011;22284;49.956;19.816;2022-12-13T10:59:27;17.77;;;8.23;;
36243;SDS011;22284;49.956;19.816;2022-12-13T11:02:30;17.77;;;8.37;;
36243;SDS011;22284;49.956;19.816;2022-12-13T11:05:38;19.00;;;8.23;;
36243;SDS011;22284;49.956;19.816;2022-12-13T11:08:40;17.97;;;7.67;;
36243;SDS011;22284;49.956;19.816;2022-12-13T11:11:41;18.77;;;8.17;;
36243;SDS011;22284;49.956;19.816;2022-12-13T11:14:48;19.13;;;8.63;;
36243;SDS011;22284;49.956;19.816;2022-12-13T11:18:04;17.57;;;8.43;;
36243;SDS011;22284;49.956;19.816;2022-12-13T11:21:11;20.80;;;9.10;;
36243;SDS011;22284;49.956;19.816;2022-12-13T11:24:20;22.67;;;9.77;;
36243;SDS011;22284;49.956;19.816;2022-12-13T11:34:19;23.30;;;9.57;;
36243;SDS011;22284;49.956;19.816;2022-12-13T11:37:31;24.50;;;10.67;;
36243;SDS011;22284;49.956;19.816;2022-12-13T11:40:50;26.17;;;10.50;;
36243;SDS011;22284;49.956;19.816;2022-12-13T11:43:57;24.63;;;11.13;;
36243;SDS011;22284;49.956;19.816;2022-12-13T11:47:03;22.40;;;10.47;;
36243;SDS011;22284;49.956;19.816;2022-12-13T11:53:45;29.10;;;13.17;;
36243;SDS011;22284;49.956;19.816;2022-12-13T11:57:04;21.23;;;10.20;;
36243;SDS011;22284;49.956;19.816;2022-12-13T12:07:16;24.07;;;10.47;;
36243;SDS011;22284;49.956;19.816;2022-12-13T12:10:26;22.23;;;9.87;;
36243;SDS011;22284;49.956;19.816;2022-12-13T12:13:41;26.20;;;12.53;;
36243;SDS011;22284;49.956;19.816;2022-12-13T12:16:53;27.13;;;12.27;;
36243;SDS011;22284;49.956;19.816;2022-12-13T12:19:57;24.13;;;10.30;;
36243;SDS011;22284;49.956;19.816;2022-12-13T12:23:22;26.53;;;11.93;;
36243;SDS011;22284;49.956;19.816;2022-12-13T12:27:10;29.00;;;11.57;;
36243;SDS011;22284;49.956;19.816;2022-12-13T12:36:52;21.33;;;10.00;;
36243;SDS011;22284;49.956;19.816;2022-12-13T12:40:40;22.50;;;9.60;;
36243;SDS011;22284;49.956;19.816;2022-12-13T12:50:49;21.83;;;9.67;;
36243;SDS011;22284;49.956;19.816;2022-12-13T12:57:20;23.12;;;10.63;;
36243;SDS011;22284;49.956;19.816;2022-12-13T13:00:26;22.33;;;9.70;;
36243;SDS011;22284;49.956;19.816;2022-12-13T13:03:31;20.77;;;8.93;;
36243;SDS011;22284;49.956;19.816;2022-12-13T13:06:40;22.23;;;10.33;;
36243;SDS011;22284;49.956;19.816;2022-12-13T13:09:47;24.03;;;11.20;;
36243;SDS011;22284;49.956;19.816;2022-12-13T13:12:48;24.60;;;11.07;;
36243;SDS011;22284;49.956;19.816;2022-12-13T13:15:53;23.20;;;9.77;;
36243;SDS011;22284;49.956;19.816;2022-12-13T13:18:56;25.50;;;10.57;;
36243;SDS011;22284;49.956;19.816;2022-12-13T13:22:03;22.93;;;10.37;;
36243;SDS011;22284;49.956;19.816;2022-12-13T13:28:27;26.47;;;11.60;;
36243;SDS011;22284;49.956;19.816;2022-12-13T13:31:31;25.37;;;10.90;;
36243;SDS011;22284;49.956;19.816;2022-12-13T13:34:51;27.80;;;12.18;;
36243;SDS011;22284;49.956;19.816;2022-12-13T13:37:53;26.00;;;12.30;;
36243;SDS011;22284;49.956;19.816;2022-12-13T13:40:55;26.60;;;12.00;;
36243;SDS011;22284;49.956;19.816;2022-12-13T13:43:59;27.90;;;12.90;;
36243;SDS011;22284;49.956;19.816;2022-12-13T13:47:10;28.57;;;12.70;;
36243;SDS011;22284;49.956;19.816;2022-12-13T13:57:27;37.07;;;15.93;;
36243;SDS011;22284;49.956;19.816;2022-12-13T14:25:25;36.23;;;17.00;;
36243;SDS011;22284;49.956;19.816;2022-12-13T14:32:00;44.67;;;20.50;;
36243;SDS011;22284;49.956;19.816;2022-12-13T14:35:02;39.87;;;20.03;;
36243;SDS011;22284;49.956;19.816;2022-12-13T14:38:05;45.37;;;19.60;;
36243;SDS011;22284;49.956;19.816;2022-12-13T14:41:15;37.20;;;17.67;;
36243;SDS011;22284;49.956;19.816;2022-12-13T14:44:26;38.60;;;18.07;;
36243;SDS011;22284;49.956;19.816;2022-12-13T14:47:29;40.13;;;19.60;;
36243;SDS011;22284;49.956;19.816;2022-12-13T14:50:32;36.53;;;18.10;;
36243;SDS011;22284;49.956;19.816;2022-12-13T14:53:37;36.57;;;17.17;;
36243;SDS011;22284;49.956;19.816;2022-12-13T14:56:58;34.77;;;17.00;;
36243;SDS011;22284;49.956;19.816;2022-12-13T14:59:59;42.03;;;18.87;;
36243;SDS011;22284;49.956;19.816;2022-12-13T15:03:24;39.93;;;19.60;;
36243;SDS011;22284;49.956;19.816;2022-12-13T15:06:27;40.37;;;19.93;;
36243;SDS011;22284;49.956;19.816;2022-12-13T15:09:28;47.40;;;21.23;;
36243;SDS011;22284;49.956;19.816;2022-12-13T15:12:30;43.53;;;21.23;;
36243;SDS011;22284;49.956;19.816;2022-12-13T15:15:32;44.50;;;22.60;;
36243;SDS011;22284;49.956;19.816;2022-12-13T15:18:37;51.43;;;23.30;;
36243;SDS011;22284;49.956;19.816;2022-12-13T15:21:38;50.53;;;24.30;;
36243;SDS011;22284;49.956;19.816;2022-12-13T15:24:39;47.27;;;22.73;;
36243;SDS011;22284;49.956;19.816;2022-12-13T15:27:47;45.20;;;22.83;;
36243;SDS011;22284;49.956;19.816;2022-12-13T15:30:50;49.25;;;23.22;;
36243;SDS011;22284;49.956;19.816;2022-12-13T15:33:52;50.10;;;24.60;;
36243;SDS011;22284;49.956;19.816;2022-12-13T15:36:57;50.80;;;24.43;;
36243;SDS011;22284;49.956;19.816;2022-12-13T15:40:11;42.20;;;19.53;;
36243;SDS011;22284;49.956;19.816;2022-12-13T15:43:17;47.03;;;20.80;;
36243;SDS011;22284;49.956;19.816;2022-12-13T15:46:23;41.23;;;18.87;;
36243;SDS011;22284;49.956;19.816;2022-12-13T15:49:34;33.00;;;14.53;;
36243;SDS011;22284;49.956;19.816;2022-12-13T15:52:39;32.37;;;15.73;;
36243;SDS011;22284;49.956;19.816;2022-12-13T15:58:43;30.43;;;14.03;;
36243;SDS011;22284;49.956;19.816;2022-12-13T16:01:50;34.10;;;14.70;;
36243;SDS011;22284;49.956;19.816;2022-12-13T16:04:52;34.60;;;15.17;;
36243;SDS011;22284;49.956;19.816;2022-12-13T16:07:53;31.80;;;15.47;;
36243;SDS011;22284;49.956;19.816;2022-12-13T16:10:57;40.03;;;18.20;;
36243;SDS011;22284;49.956;19.816;2022-12-13T16:14:23;40.03;;;18.97;;
36243;SDS011;22284;49.956;19.816;2022-12-13T16:17:34;37.83;;;18.07;;
36243;SDS011;22284;49.956;19.816;2022-12-13T16:20:35;37.53;;;17.13;;
36243;SDS011;22284;49.956;19.816;2022-12-13T16:23:36;32.63;;;16.10;;
36243;SDS011;22284;49.956;19.816;2022-12-13T16:26:41;37.93;;;18.33;;
36243;SDS011;22284;49.956;19.816;2022-12-13T16:29:45;38.87;;;18.30;;
36243;SDS011;22284;49.956;19.816;2022-12-13T16:32:47;41.93;;;18.93;;
36243;SDS011;22284;49.956;19.816;2022-12-13T16:35:49;42.90;;;19.43;;
36243;SDS011;22284;49.956;19.816;2022-12-13T16:38:50;42.83;;;20.13;;
36243;SDS011;22284;49.956;19.816;2022-12-13T16:41:51;42.13;;;20.10;;
36243;SDS011;22284;49.956;19.816;2022-12-13T16:44:54;42.97;;;20.23;;
36243;SDS011;22284;49.956;19.816;2022-12-13T16:47:56;35.50;;;16.70;;
36243;SDS011;22284;49.956;19.816;2022-12-13T16:50:58;50.40;;;21.13;;
36243;SDS011;22284;49.956;19.816;2022-12-13T16:53:59;42.63;;;20.63;;
36243;SDS011;22284;49.956;19.816;2022-12-13T16:57:00;48.20;;;21.37;;
36243;SDS011;22284;49.956;19.816;2022-12-13T17:00:01;47.63;;;21.10;;
36243;SDS011;22284;49.956;19.816;2022-12-13T17:03:04;46.50;;;20.73;;
36243;SDS011;22284;49.956;19.816;2022-12-13T17:06:09;50.63;;;19.82;;
36243;SDS011;22284;49.956;19.816;2022-12-13T17:09:11;60.23;;;26.93;;
36243;SDS011;22284;49.956;19.816;2022-12-13T17:12:13;58.97;;;26.57;;
36243;SDS011;22284;49.956;19.816;2022-12-13T17:15:14;61.00;;;27.10;;
36243;SDS011;22284;49.956;19.816;2022-12-13T17:18:16;61.83;;;24.07;;
36243;SDS011;22284;49.956;19.816;2022-12-13T17:21:19;63.63;;;24.77;;
36243;SDS011;22284;49.956;19.816;2022-12-13T17:24:20;56.40;;;23.13;;
36243;SDS011;22284;49.956;19.816;2022-12-13T17:27:21;58.20;;;24.37;;
36243;SDS011;22284;49.956;19.816;2022-12-13T17:30:22;54.73;;;23.80;;
36243;SDS011;22284;49.956;19.816;2022-12-13T17:33:23;59.73;;;26.33;;
36243;SDS011;22284;49.956;19.816;2022-12-13T17:36:24;49.53;;;22.97;;
36243;SDS011;22284;49.956;19.816;2022-12-13T17:39:30;50.43;;;23.10;;
36243;SDS011;22284;49.956;19.816;2022-12-13T17:42:31;47.27;;;21.77;;
36243;SDS011;22284;49.956;19.816;2022-12-13T17:45:34;54.50;;;26.17;;
36243;SDS011;22284;49.956;19.816;2022-12-13T17:48:35;59.13;;;27.17;;
36243;SDS011;22284;49.956;19.816;2022-12-13T17:51:36;65.20;;;32.40;;
36243;SDS011;22284;49.956;19.816;2022-12-13T17:54:38;63.83;;;29.37;;
36243;SDS011;22284;49.956;19.816;2022-12-13T17:57:38;54.07;;;25.03;;
36243;SDS011;22284;49.956;19.816;2022-12-13T18:00:39;61.43;;;27.13;;
36243;SDS011;22284;49.956;19.816;2022-12-13T18:03:40;53.07;;;24.40;;
36243;SDS011;22284;49.956;19.816;2022-12-13T18:06:42;53.33;;;24.67;;
36243;SDS011;22284;49.956;19.816;2022-12-13T18:09:43;57.90;;;26.73;;
36243;SDS011;22284;49.956;19.816;2022-12-13T18:12:45;63.30;;;29.80;;
36243;SDS011;22284;49.956;19.816;2022-12-13T18:15:46;60.87;;;27.03;;
36243;SDS011;22284;49.956;19.816;2022-12-13T18:18:47;58.97;;;26.50;;
36243;SDS011;22284;49.956;19.816;2022-12-13T18:21:48;62.13;;;28.20;;
36243;SDS011;22284;49.956;19.816;2022-12-13T18:24:49;60.73;;;27.30;;
36243;SDS011;22284;49.956;19.816;2022-12-13T18:27:50;55.00;;;26.23;;
36243;SDS011;22284;49.956;19.816;2022-12-13T18:30:51;63.00;;;27.80;;
36243;SDS011;22284;49.956;19.816;2022-12-13T18:33:52;62.07;;;30.23;;
36243;SDS011;22284;49.956;19.816;2022-12-13T18:36:53;61.43;;;30.43;;
36243;SDS011;22284;49.956;19.816;2022-12-13T18:39:54;64.17;;;30.07;;
36243;SDS011;22284;49.956;19.816;2022-12-13T18:42:55;61.30;;;28.23;;
36243;SDS011;22284;49.956;19.816;2022-12-13T18:45:59;66.97;;;28.97;;
36243;SDS011;22284;49.956;19.816;2022-12-13T18:49:02;65.37;;;30.70;;
36243;SDS011;22284;49.956;19.816;2022-12-13T18:52:05;72.78;;;31.85;;
36243;SDS011;22284;49.956;19.816;2022-12-13T18:55:06;69.63;;;31.20;;
36243;SDS011;22284;49.956;19.816;2022-12-13T18:58:08;69.23;;;31.67;;
36243;SDS011;22284;49.956;19.816;2022-12-13T19:01:10;67.27;;;31.43;;
36243;SDS011;22284;49.956;19.816;2022-12-13T19:04:12;70.05;;;32.67;;
36243;SDS011;22284;49.956;19.816;2022-12-13T19:07:13;68.73;;;32.97;;
36243;SDS011;22284;49.956;19.816;2022-12-13T19:10:15;68.53;;;32.33;;
36243;SDS011;22284;49.956;19.816;2022-12-13T19:13:16;70.10;;;34.37;;
36243;SDS011;22284;49.956;19.816;2022-12-13T19:16:18;80.07;;;36.53;;
36243;SDS011;22284;49.956;19.816;2022-12-13T19:19:22;104.20;;;49.33;;
36243;SDS011;22284;49.956;19.816;2022-12-13T19:22:23;116.07;;;55.27;;
36243;SDS011;22284;49.956;19.816;2022-12-13T19:25:24;95.30;;;43.73;;
36243;SDS011;22284;49.956;19.816;2022-12-13T19:28:25;75.63;;;35.50;;
36243;SDS011;22284;49.956;19.816;2022-12-13T19:31:25;72.70;;;34.63;;
36243;SDS011;22284;49.956;19.816;2022-12-13T19:34:27;71.00;;;34.33;;
36243;SDS011;22284;49.956;19.816;2022-12-13T19:37:28;76.27;;;35.33;;
36243;SDS011;22284;49.956;19.816;2022-12-13T19:40:29;81.87;;;36.57;;